sensor_id;sensor_type;location;lat;lon;timestamp;P1;durP1;ratioP1;P2;durP2;ratioP2
76380;SDS011;65202;52.520;10.528;2023-06-01T00:00:24;14.32;;;5.30;;
76380;SDS011;65202;52.520;10.528;2023-06-01T00:02:52;13.48;;;5.35;;
76380;SDS011;65202;52.520;10.528;2023-06-01T00:05:19;15.57;;;5.93;;
76380;SDS011;65202;52.520;10.528;2023-06-01T00:07:47;16.73;;;5.93;;
76380;SDS011;65202;52.520;10.528;2023-06-01T00:10:14;14.25;;;5.25;;
76380;SDS011;65202;52.520;10.528;2023-06-01T00:12:42;15.80;;;5.75;;
76380;SDS011;65202;52.520;10.528;2023-06-01T00:15:09;16.92;;;5.78;;
76380;SDS011;65202;52.520;10.528;2023-06-01T00:17:37;17.80;;;5.93;;
76380;SDS011;65202;52.520;10.528;2023-06-01T00:20:04;18.02;;;6.13;;
76380;SDS011;65202;52.520;10.528;2023-06-01T00:22:35;14.35;;;6.10;;
76380;SDS011;65202;52.520;10.528;2023-06-01T00:25:08;17.35;;;5.70;;
76380;SDS011;65202;52.520;10.528;2023-06-01T00:27:36;15.52;;;5.50;;
76380;SDS011;65202;52.520;10.528;2023-06-01T00:30:03;18.70;;;5.80;;
76380;SDS011;65202;52.520;10.528;2023-06-01T00:32:31;17.90;;;6.15;;
76380;SDS011;65202;52.520;10.528;2023-06-01T00:34:59;14.90;;;6.50;;
76380;SDS011;65202;52.520;10.528;2023-06-01T00:37:26;15.27;;;6.53;;
76380;SDS011;65202;52.520;10.528;2023-06-01T00:39:53;20.40;;;6.72;;
76380;SDS011;65202;52.520;10.528;2023-06-01T00:42:20;17.88;;;6.90;;
76380;SDS011;65202;52.520;10.528;2023-06-01T00:44:48;16.45;;;6.32;;
76380;SDS011;65202;52.520;10.528;2023-06-01T00:47:15;16.95;;;6.57;;
76380;SDS011;65202;52.520;10.528;2023-06-01T00:49:43;18.70;;;6.85;;
76380;SDS011;65202;52.520;10.528;2023-06-01T00:52:10;14.45;;;6.40;;
76380;SDS011;65202;52.520;10.528;2023-06-01T00:54:39;18.42;;;6.40;;
76380;SDS011;65202;52.520;10.528;2023-06-01T00:57:07;16.80;;;6.93;;
76380;SDS011;65202;52.520;10.528;2023-06-01T00:59:34;17.35;;;7.75;;
76380;SDS011;65202;52.520;10.528;2023-06-01T01:02:02;17.05;;;7.18;;
76380;SDS011;65202;52.520;10.528;2023-06-01T01:04:31;20.02;;;7.63;;
76380;SDS011;65202;52.520;10.528;2023-06-01T01:09:49;17.70;;;8.10;;
76380;SDS011;65202;52.520;10.528;2023-06-01T01:12:50;19.80;;;7.25;;
76380;SDS011;65202;52.520;10.528;2023-06-01T01:15:39;23.33;;;8.00;;
76380;SDS011;65202;52.520;10.528;2023-06-01T01:18:16;17.90;;;8.15;;
76380;SDS011;65202;52.520;10.528;2023-06-01T01:21:03;19.55;;;7.80;;
76380;SDS011;65202;52.520;10.528;2023-06-01T01:23:55;16.90;;;7.20;;
76380;SDS011;65202;52.520;10.528;2023-06-01T01:26:58;19.10;;;7.32;;
76380;SDS011;65202;52.520;10.528;2023-06-01T01:29:59;19.77;;;7.25;;
76380;SDS011;65202;52.520;10.528;2023-06-01T01:32:33;18.73;;;7.85;;
76380;SDS011;65202;52.520;10.528;2023-06-01T01:35:02;18.30;;;7.63;;
76380;SDS011;65202;52.520;10.528;2023-06-01T01:37:32;18.15;;;7.70;;
76380;SDS011;65202;52.520;10.528;2023-06-01T01:40:00;23.33;;;8.52;;
76380;SDS011;65202;52.520;10.528;2023-06-01T01:42:28;20.80;;;8.80;;
76380;SDS011;65202;52.520;10.528;2023-06-01T01:44:55;18.33;;;8.07;;
76380;SDS011;65202;52.520;10.528;2023-06-01T01:47:35;20.92;;;8.30;;
76380;SDS011;65202;52.520;10.528;2023-06-01T01:50:13;22.85;;;8.98;;
76380;SDS011;65202;52.520;10.528;2023-06-01T01:52:45;20.33;;;8.35;;
76380;SDS011;65202;52.520;10.528;2023-06-01T01:55:15;17.77;;;8.38;;
76380;SDS011;65202;52.520;10.528;2023-06-01T01:57:45;24.83;;;8.75;;
76380;SDS011;65202;52.520;10.528;2023-06-01T02:00:13;19.23;;;7.95;;
76380;SDS011;65202;52.520;10.528;2023-06-01T02:02:41;19.13;;;8.32;;
76380;SDS011;65202;52.520;10.528;2023-06-01T02:05:08;21.50;;;9.23;;
76380;SDS011;65202;52.520;10.528;2023-06-01T02:07:35;22.23;;;9.27;;
76380;SDS011;65202;52.520;10.528;2023-06-01T02:10:03;19.40;;;8.55;;
76380;SDS011;65202;52.520;10.528;2023-06-01T02:12:31;16.88;;;8.15;;
76380;SDS011;65202;52.520;10.528;2023-06-01T02:14:58;19.05;;;8.57;;
76380;SDS011;65202;52.520;10.528;2023-06-01T02:17:25;23.77;;;9.05;;
76380;SDS011;65202;52.520;10.528;2023-06-01T02:19:54;24.55;;;8.70;;
76380;SDS011;65202;52.520;10.528;2023-06-01T02:22:21;17.10;;;8.50;;
76380;SDS011;65202;52.520;10.528;2023-06-01T02:24:48;20.98;;;8.55;;
76380;SDS011;65202;52.520;10.528;2023-06-01T02:27:15;19.10;;;8.23;;
76380;SDS011;65202;52.520;10.528;2023-06-01T02:29:43;21.73;;;8.48;;
76380;SDS011;65202;52.520;10.528;2023-06-01T02:32:10;24.52;;;8.73;;
76380;SDS011;65202;52.520;10.528;2023-06-01T02:34:37;18.65;;;8.35;;
76380;SDS011;65202;52.520;10.528;2023-06-01T02:37:05;19.92;;;8.85;;
76380;SDS011;65202;52.520;10.528;2023-06-01T02:39:33;16.30;;;8.68;;
76380;SDS011;65202;52.520;10.528;2023-06-01T02:42:00;19.90;;;8.70;;
76380;SDS011;65202;52.520;10.528;2023-06-01T02:44:27;23.30;;;8.70;;
76380;SDS011;65202;52.520;10.528;2023-06-01T02:46:54;22.10;;;7.97;;
76380;SDS011;65202;52.520;10.528;2023-06-01T02:49:22;21.27;;;8.25;;
76380;SDS011;65202;52.520;10.528;2023-06-01T02:51:49;20.13;;;8.25;;
76380;SDS011;65202;52.520;10.528;2023-06-01T02:54:16;19.90;;;8.63;;
76380;SDS011;65202;52.520;10.528;2023-06-01T02:56:43;18.45;;;8.48;;
76380;SDS011;65202;52.520;10.528;2023-06-01T02:59:11;21.20;;;8.95;;
76380;SDS011;65202;52.520;10.528;2023-06-01T03:01:38;17.05;;;8.98;;
76380;SDS011;65202;52.520;10.528;2023-06-01T03:04:06;18.10;;;8.70;;
76380;SDS011;65202;52.520;10.528;2023-06-01T03:06:34;20.65;;;9.52;;
76380;SDS011;65202;52.520;10.528;2023-06-01T03:09:05;22.23;;;9.27;;
76380;SDS011;65202;52.520;10.528;2023-06-01T03:11:32;23.08;;;9.88;;
76380;SDS011;65202;52.520;10.528;2023-06-01T03:13:59;22.70;;;9.18;;
76380;SDS011;65202;52.520;10.528;2023-06-01T03:16:27;25.27;;;9.68;;
76380;SDS011;65202;52.520;10.528;2023-06-01T03:18:54;22.00;;;9.27;;
76380;SDS011;65202;52.520;10.528;2023-06-01T03:21:22;26.30;;;10.15;;
76380;SDS011;65202;52.520;10.528;2023-06-01T03:23:49;22.27;;;9.50;;
76380;SDS011;65202;52.520;10.528;2023-06-01T03:26:16;20.67;;;9.30;;
76380;SDS011;65202;52.520;10.528;2023-06-01T03:28:47;19.70;;;9.18;;
76380;SDS011;65202;52.520;10.528;2023-06-01T03:31:15;24.50;;;9.45;;
76380;SDS011;65202;52.520;10.528;2023-06-01T03:33:42;24.38;;;8.95;;
76380;SDS011;65202;52.520;10.528;2023-06-01T03:36:09;24.02;;;9.88;;
76380;SDS011;65202;52.520;10.528;2023-06-01T03:38:37;22.13;;;9.18;;
76380;SDS011;65202;52.520;10.528;2023-06-01T03:41:04;20.05;;;8.90;;
76380;SDS011;65202;52.520;10.528;2023-06-01T03:43:31;25.23;;;8.75;;
76380;SDS011;65202;52.520;10.528;2023-06-01T03:45:58;20.63;;;8.98;;
76380;SDS011;65202;52.520;10.528;2023-06-01T03:48:25;23.13;;;9.35;;
76380;SDS011;65202;52.520;10.528;2023-06-01T03:50:53;21.10;;;9.40;;
76380;SDS011;65202;52.520;10.528;2023-06-01T03:53:20;19.20;;;9.25;;
76380;SDS011;65202;52.520;10.528;2023-06-01T03:55:49;20.58;;;9.55;;
76380;SDS011;65202;52.520;10.528;2023-06-01T03:58:18;20.65;;;8.80;;
76380;SDS011;65202;52.520;10.528;2023-06-01T04:00:46;20.80;;;9.55;;
76380;SDS011;65202;52.520;10.528;2023-06-01T04:03:13;21.73;;;9.70;;
76380;SDS011;65202;52.520;10.528;2023-06-01T04:05:42;17.63;;;8.32;;
76380;SDS011;65202;52.520;10.528;2023-06-01T04:08:16;20.85;;;9.23;;
76380;SDS011;65202;52.520;10.528;2023-06-01T04:10:46;19.48;;;7.93;;
76380;SDS011;65202;52.520;10.528;2023-06-01T04:13:14;15.73;;;8.30;;
76380;SDS011;65202;52.520;10.528;2023-06-01T04:15:41;19.67;;;8.15;;
76380;SDS011;65202;52.520;10.528;2023-06-01T04:18:08;12.70;;;7.70;;
76380;SDS011;65202;52.520;10.528;2023-06-01T04:20:36;16.65;;;7.80;;
76380;SDS011;65202;52.520;10.528;2023-06-01T04:23:03;15.90;;;7.53;;
76380;SDS011;65202;52.520;10.528;2023-06-01T04:25:30;15.48;;;7.45;;
76380;SDS011;65202;52.520;10.528;2023-06-01T04:27:58;18.17;;;7.53;;
76380;SDS011;65202;52.520;10.528;2023-06-01T04:30:26;16.15;;;7.20;;
76380;SDS011;65202;52.520;10.528;2023-06-01T04:32:53;15.30;;;6.88;;
76380;SDS011;65202;52.520;10.528;2023-06-01T04:35:21;13.93;;;6.72;;
76380;SDS011;65202;52.520;10.528;2023-06-01T04:37:49;14.63;;;7.50;;
76380;SDS011;65202;52.520;10.528;2023-06-01T04:40:17;15.23;;;6.95;;
76380;SDS011;65202;52.520;10.528;2023-06-01T04:42:44;15.75;;;7.93;;
76380;SDS011;65202;52.520;10.528;2023-06-01T04:45:25;16.95;;;7.30;;
76380;SDS011;65202;52.520;10.528;2023-06-01T04:47:52;16.50;;;7.90;;
76380;SDS011;65202;52.520;10.528;2023-06-01T04:50:24;20.08;;;8.20;;
76380;SDS011;65202;52.520;10.528;2023-06-01T04:52:51;18.92;;;8.32;;
76380;SDS011;65202;52.520;10.528;2023-06-01T04:55:19;18.75;;;7.97;;
76380;SDS011;65202;52.520;10.528;2023-06-01T04:57:46;24.77;;;8.93;;
76380;SDS011;65202;52.520;10.528;2023-06-01T05:00:14;14.93;;;7.75;;
76380;SDS011;65202;52.520;10.528;2023-06-01T05:02:45;16.65;;;8.00;;
76380;SDS011;65202;52.520;10.528;2023-06-01T05:05:15;17.67;;;7.82;;
76380;SDS011;65202;52.520;10.528;2023-06-01T05:07:43;16.10;;;8.07;;
76380;SDS011;65202;52.520;10.528;2023-06-01T05:10:11;17.98;;;7.90;;
76380;SDS011;65202;52.520;10.528;2023-06-01T05:12:39;18.70;;;8.13;;
76380;SDS011;65202;52.520;10.528;2023-06-01T05:15:07;16.95;;;7.70;;
76380;SDS011;65202;52.520;10.528;2023-06-01T05:17:36;16.25;;;9.00;;
76380;SDS011;65202;52.520;10.528;2023-06-01T05:20:06;14.73;;;8.00;;
76380;SDS011;65202;52.520;10.528;2023-06-01T05:22:35;15.40;;;7.68;;
76380;SDS011;65202;52.520;10.528;2023-06-01T05:25:03;15.07;;;7.82;;
76380;SDS011;65202;52.520;10.528;2023-06-01T05:27:32;16.23;;;8.60;;
76380;SDS011;65202;52.520;10.528;2023-06-01T05:29:59;15.98;;;7.72;;
76380;SDS011;65202;52.520;10.528;2023-06-01T05:32:27;16.55;;;7.57;;
76380;SDS011;65202;52.520;10.528;2023-06-01T05:34:54;15.23;;;7.72;;
76380;SDS011;65202;52.520;10.528;2023-06-01T05:37:22;38.28;;;7.63;;
76380;SDS011;65202;52.520;10.528;2023-06-01T05:39:49;18.13;;;7.22;;
76380;SDS011;65202;52.520;10.528;2023-06-01T05:42:17;14.43;;;8.18;;
76380;SDS011;65202;52.520;10.528;2023-06-01T05:44:44;15.68;;;8.00;;
76380;SDS011;65202;52.520;10.528;2023-06-01T05:47:11;20.08;;;8.27;;
76380;SDS011;65202;52.520;10.528;2023-06-01T05:49:39;17.20;;;8.15;;
76380;SDS011;65202;52.520;10.528;2023-06-01T05:52:06;16.58;;;8.63;;
76380;SDS011;65202;52.520;10.528;2023-06-01T05:54:33;16.00;;;7.85;;
76380;SDS011;65202;52.520;10.528;2023-06-01T05:57:00;18.15;;;8.75;;
76380;SDS011;65202;52.520;10.528;2023-06-01T05:59:28;17.40;;;7.93;;
76380;SDS011;65202;52.520;10.528;2023-06-01T06:01:55;20.20;;;8.98;;
76380;SDS011;65202;52.520;10.528;2023-06-01T06:04:22;20.17;;;9.07;;
76380;SDS011;65202;52.520;10.528;2023-06-01T06:06:49;17.00;;;7.50;;
76380;SDS011;65202;52.520;10.528;2023-06-01T06:09:17;22.17;;;8.98;;
76380;SDS011;65202;52.520;10.528;2023-06-01T06:11:44;21.95;;;10.30;;
76380;SDS011;65202;52.520;10.528;2023-06-01T06:14:11;25.88;;;12.90;;
76380;SDS011;65202;52.520;10.528;2023-06-01T06:16:41;19.48;;;10.70;;
76380;SDS011;65202;52.520;10.528;2023-06-01T06:19:08;27.15;;;13.23;;
76380;SDS011;65202;52.520;10.528;2023-06-01T06:21:36;17.70;;;7.53;;
76380;SDS011;65202;52.520;10.528;2023-06-01T06:24:04;42.20;;;19.83;;
76380;SDS011;65202;52.520;10.528;2023-06-01T06:26:32;19.35;;;9.20;;
76380;SDS011;65202;52.520;10.528;2023-06-01T06:28:59;19.38;;;9.50;;
76380;SDS011;65202;52.520;10.528;2023-06-01T06:31:26;18.27;;;6.65;;
76380;SDS011;65202;52.520;10.528;2023-06-01T06:33:54;13.43;;;5.85;;
76380;SDS011;65202;52.520;10.528;2023-06-01T06:36:22;12.05;;;5.82;;
76380;SDS011;65202;52.520;10.528;2023-06-01T06:38:49;12.73;;;5.82;;
76380;SDS011;65202;52.520;10.528;2023-06-01T06:41:16;13.80;;;5.85;;
76380;SDS011;65202;52.520;10.528;2023-06-01T06:43:43;13.25;;;6.30;;
76380;SDS011;65202;52.520;10.528;2023-06-01T06:46:11;15.57;;;6.03;;
76380;SDS011;65202;52.520;10.528;2023-06-01T06:48:38;14.38;;;6.53;;
76380;SDS011;65202;52.520;10.528;2023-06-01T06:51:05;13.93;;;6.03;;
76380;SDS011;65202;52.520;10.528;2023-06-01T06:53:32;11.70;;;5.78;;
76380;SDS011;65202;52.520;10.528;2023-06-01T06:56:00;12.73;;;5.95;;
76380;SDS011;65202;52.520;10.528;2023-06-01T06:58:27;17.90;;;6.10;;
76380;SDS011;65202;52.520;10.528;2023-06-01T07:00:54;20.67;;;6.75;;
76380;SDS011;65202;52.520;10.528;2023-06-01T07:03:22;20.48;;;7.32;;
76380;SDS011;65202;52.520;10.528;2023-06-01T07:05:49;22.85;;;6.55;;
76380;SDS011;65202;52.520;10.528;2023-06-01T07:08:17;15.15;;;6.68;;
76380;SDS011;65202;52.520;10.528;2023-06-01T07:10:44;21.17;;;6.47;;
76380;SDS011;65202;52.520;10.528;2023-06-01T07:13:12;17.63;;;6.53;;
76380;SDS011;65202;52.520;10.528;2023-06-01T07:15:40;17.38;;;6.47;;
76380;SDS011;65202;52.520;10.528;2023-06-01T07:18:07;14.40;;;5.93;;
76380;SDS011;65202;52.520;10.528;2023-06-01T07:20:34;17.08;;;6.45;;
76380;SDS011;65202;52.520;10.528;2023-06-01T07:23:02;17.73;;;6.25;;
76380;SDS011;65202;52.520;10.528;2023-06-01T07:25:29;25.38;;;9.25;;
76380;SDS011;65202;52.520;10.528;2023-06-01T07:27:56;17.45;;;6.50;;
76380;SDS011;65202;52.520;10.528;2023-06-01T07:30:25;12.68;;;5.70;;
76380;SDS011;65202;52.520;10.528;2023-06-01T07:32:52;17.25;;;5.90;;
76380;SDS011;65202;52.520;10.528;2023-06-01T07:35:19;17.52;;;6.13;;
76380;SDS011;65202;52.520;10.528;2023-06-01T07:37:47;19.25;;;6.50;;
76380;SDS011;65202;52.520;10.528;2023-06-01T07:40:14;16.40;;;6.30;;
76380;SDS011;65202;52.520;10.528;2023-06-01T07:42:41;15.07;;;5.85;;
76380;SDS011;65202;52.520;10.528;2023-06-01T07:45:11;17.75;;;5.93;;
76380;SDS011;65202;52.520;10.528;2023-06-01T07:47:39;16.40;;;5.75;;
76380;SDS011;65202;52.520;10.528;2023-06-01T07:50:07;13.50;;;6.43;;
76380;SDS011;65202;52.520;10.528;2023-06-01T07:52:36;12.90;;;5.75;;
76380;SDS011;65202;52.520;10.528;2023-06-01T07:55:04;16.17;;;5.97;;
76380;SDS011;65202;52.520;10.528;2023-06-01T07:57:31;13.02;;;5.60;;
76380;SDS011;65202;52.520;10.528;2023-06-01T07:59:59;19.20;;;5.78;;
76380;SDS011;65202;52.520;10.528;2023-06-01T08:02:26;15.23;;;6.07;;
76380;SDS011;65202;52.520;10.528;2023-06-01T08:04:54;21.20;;;7.05;;
76380;SDS011;65202;52.520;10.528;2023-06-01T08:07:23;11.93;;;5.55;;
76380;SDS011;65202;52.520;10.528;2023-06-01T08:09:55;18.83;;;6.63;;
76380;SDS011;65202;52.520;10.528;2023-06-01T08:12:24;21.17;;;6.85;;
76380;SDS011;65202;52.520;10.528;2023-06-01T08:14:53;14.63;;;6.53;;
76380;SDS011;65202;52.520;10.528;2023-06-01T08:17:20;15.13;;;5.85;;
76380;SDS011;65202;52.520;10.528;2023-06-01T08:19:47;15.07;;;6.30;;
76380;SDS011;65202;52.520;10.528;2023-06-01T08:22:16;18.90;;;6.30;;
76380;SDS011;65202;52.520;10.528;2023-06-01T08:24:43;15.25;;;6.03;;
76380;SDS011;65202;52.520;10.528;2023-06-01T08:27:16;17.42;;;6.15;;
76380;SDS011;65202;52.520;10.528;2023-06-01T08:29:52;15.85;;;6.07;;
76380;SDS011;65202;52.520;10.528;2023-06-01T08:32:21;19.00;;;6.32;;
76380;SDS011;65202;52.520;10.528;2023-06-01T08:34:49;19.17;;;6.57;;
76380;SDS011;65202;52.520;10.528;2023-06-01T08:37:16;17.38;;;6.13;;
76380;SDS011;65202;52.520;10.528;2023-06-01T08:39:43;18.25;;;6.38;;
76380;SDS011;65202;52.520;10.528;2023-06-01T08:42:20;17.48;;;6.30;;
76380;SDS011;65202;52.520;10.528;2023-06-01T08:44:57;20.10;;;6.80;;
76380;SDS011;65202;52.520;10.528;2023-06-01T08:47:25;19.52;;;6.50;;
76380;SDS011;65202;52.520;10.528;2023-06-01T08:49:54;16.48;;;5.80;;
76380;SDS011;65202;52.520;10.528;2023-06-01T08:52:26;16.90;;;6.38;;
76380;SDS011;65202;52.520;10.528;2023-06-01T08:54:59;15.70;;;5.88;;
76380;SDS011;65202;52.520;10.528;2023-06-01T08:57:28;16.85;;;5.97;;
76380;SDS011;65202;52.520;10.528;2023-06-01T08:59:57;14.63;;;5.95;;
76380;SDS011;65202;52.520;10.528;2023-06-01T09:02:26;18.17;;;6.28;;
76380;SDS011;65202;52.520;10.528;2023-06-01T09:04:54;20.02;;;6.55;;
76380;SDS011;65202;52.520;10.528;2023-06-01T09:07:22;17.20;;;6.13;;
76380;SDS011;65202;52.520;10.528;2023-06-01T09:09:49;15.70;;;6.18;;
76380;SDS011;65202;52.520;10.528;2023-06-01T09:12:21;14.27;;;6.68;;
76380;SDS011;65202;52.520;10.528;2023-06-01T09:17:44;17.73;;;6.28;;
76380;SDS011;65202;52.520;10.528;2023-06-01T09:20:14;17.67;;;6.53;;
76380;SDS011;65202;52.520;10.528;2023-06-01T09:22:52;15.75;;;6.20;;
76380;SDS011;65202;52.520;10.528;2023-06-01T09:25:29;16.33;;;6.15;;
76380;SDS011;65202;52.520;10.528;2023-06-01T09:28:00;18.02;;;6.57;;
76380;SDS011;65202;52.520;10.528;2023-06-01T09:30:39;14.13;;;6.10;;
76380;SDS011;65202;52.520;10.528;2023-06-01T09:33:12;12.43;;;5.93;;
76380;SDS011;65202;52.520;10.528;2023-06-01T09:35:43;18.98;;;5.97;;
76380;SDS011;65202;52.520;10.528;2023-06-01T09:38:23;14.30;;;5.47;;
76380;SDS011;65202;52.520;10.528;2023-06-01T09:40:59;12.48;;;5.60;;
76380;SDS011;65202;52.520;10.528;2023-06-01T09:43:29;12.60;;;5.45;;
76380;SDS011;65202;52.520;10.528;2023-06-01T09:46:04;14.23;;;5.30;;
76380;SDS011;65202;52.520;10.528;2023-06-01T09:48:34;12.82;;;5.20;;
76380;SDS011;65202;52.520;10.528;2023-06-01T09:51:02;13.10;;;5.05;;
76380;SDS011;65202;52.520;10.528;2023-06-01T09:53:42;10.63;;;4.97;;
76380;SDS011;65202;52.520;10.528;2023-06-01T09:56:10;15.20;;;5.57;;
76380;SDS011;65202;52.520;10.528;2023-06-01T09:58:38;12.00;;;5.30;;
76380;SDS011;65202;52.520;10.528;2023-06-01T10:01:07;11.85;;;5.20;;
76380;SDS011;65202;52.520;10.528;2023-06-01T10:03:40;12.35;;;5.68;;
76380;SDS011;65202;52.520;10.528;2023-06-01T10:06:10;17.48;;;6.05;;
76380;SDS011;65202;52.520;10.528;2023-06-01T10:08:39;18.27;;;5.95;;
76380;SDS011;65202;52.520;10.528;2023-06-01T10:11:09;21.55;;;5.38;;
76380;SDS011;65202;52.520;10.528;2023-06-01T10:13:36;12.32;;;5.30;;
76380;SDS011;65202;52.520;10.528;2023-06-01T10:16:04;18.63;;;5.57;;
76380;SDS011;65202;52.520;10.528;2023-06-01T10:18:34;13.90;;;5.50;;
76380;SDS011;65202;52.520;10.528;2023-06-01T10:21:03;17.33;;;5.88;;
76380;SDS011;65202;52.520;10.528;2023-06-01T10:23:33;13.30;;;5.15;;
76380;SDS011;65202;52.520;10.528;2023-06-01T10:26:05;15.15;;;6.05;;
76380;SDS011;65202;52.520;10.528;2023-06-01T10:28:42;15.25;;;5.90;;
76380;SDS011;65202;52.520;10.528;2023-06-01T10:34:06;12.43;;;5.70;;
76380;SDS011;65202;52.520;10.528;2023-06-01T10:39:31;11.45;;;5.10;;
76380;SDS011;65202;52.520;10.528;2023-06-01T10:47:43;13.23;;;5.32;;
76380;SDS011;65202;52.520;10.528;2023-06-01T10:57:34;11.10;;;5.70;;
76380;SDS011;65202;52.520;10.528;2023-06-01T11:00:20;11.90;;;5.63;;
76380;SDS011;65202;52.520;10.528;2023-06-01T11:05:34;14.88;;;5.88;;
76380;SDS011;65202;52.520;10.528;2023-06-01T11:13:23;11.63;;;5.65;;
76380;SDS011;65202;52.520;10.528;2023-06-01T11:18:41;10.63;;;5.32;;
76380;SDS011;65202;52.520;10.528;2023-06-01T11:21:16;14.13;;;5.28;;
76380;SDS011;65202;52.520;10.528;2023-06-01T11:23:48;13.93;;;5.88;;
76380;SDS011;65202;52.520;10.528;2023-06-01T11:26:17;11.52;;;5.30;;
76380;SDS011;65202;52.520;10.528;2023-06-01T11:28:46;16.45;;;5.45;;
76380;SDS011;65202;52.520;10.528;2023-06-01T11:31:15;14.77;;;5.90;;
76380;SDS011;65202;52.520;10.528;2023-06-01T11:33:50;12.88;;;5.85;;
76380;SDS011;65202;52.520;10.528;2023-06-01T11:36:20;13.88;;;5.72;;
76380;SDS011;65202;52.520;10.528;2023-06-01T11:38:50;13.38;;;5.60;;
76380;SDS011;65202;52.520;10.528;2023-06-01T11:41:21;11.25;;;5.88;;
76380;SDS011;65202;52.520;10.528;2023-06-01T11:43:53;11.52;;;5.32;;
76380;SDS011;65202;52.520;10.528;2023-06-01T11:46:23;11.50;;;4.95;;
76380;SDS011;65202;52.520;10.528;2023-06-01T11:49:04;12.23;;;5.05;;
76380;SDS011;65202;52.520;10.528;2023-06-01T11:51:37;12.52;;;5.05;;
76380;SDS011;65202;52.520;10.528;2023-06-01T11:54:06;11.63;;;5.10;;
76380;SDS011;65202;52.520;10.528;2023-06-01T11:56:36;10.38;;;4.55;;
76380;SDS011;65202;52.520;10.528;2023-06-01T11:59:06;12.07;;;4.72;;
76380;SDS011;65202;52.520;10.528;2023-06-01T12:01:42;10.15;;;5.18;;
76380;SDS011;65202;52.520;10.528;2023-06-01T12:04:12;10.38;;;4.50;;
76380;SDS011;65202;52.520;10.528;2023-06-01T12:06:40;9.95;;;4.93;;
76380;SDS011;65202;52.520;10.528;2023-06-01T12:09:08;12.50;;;4.90;;
76380;SDS011;65202;52.520;10.528;2023-06-01T12:11:36;11.68;;;4.60;;
76380;SDS011;65202;52.520;10.528;2023-06-01T12:14:05;17.10;;;4.70;;
76380;SDS011;65202;52.520;10.528;2023-06-01T12:16:52;12.50;;;4.95;;
76380;SDS011;65202;52.520;10.528;2023-06-01T12:19:30;10.32;;;5.18;;
76380;SDS011;65202;52.520;10.528;2023-06-01T12:21:58;11.38;;;5.35;;
76380;SDS011;65202;52.520;10.528;2023-06-01T12:24:32;13.10;;;5.13;;
76380;SDS011;65202;52.520;10.528;2023-06-01T12:27:01;12.25;;;5.00;;
76380;SDS011;65202;52.520;10.528;2023-06-01T12:29:39;11.98;;;5.40;;
76380;SDS011;65202;52.520;10.528;2023-06-01T12:32:10;15.43;;;5.65;;
76380;SDS011;65202;52.520;10.528;2023-06-01T12:34:39;11.20;;;5.07;;
76380;SDS011;65202;52.520;10.528;2023-06-01T12:37:21;13.77;;;5.05;;
76380;SDS011;65202;52.520;10.528;2023-06-01T12:39:51;17.40;;;5.03;;
76380;SDS011;65202;52.520;10.528;2023-06-01T12:45:05;13.90;;;4.97;;
76380;SDS011;65202;52.520;10.528;2023-06-01T12:47:37;11.82;;;4.70;;
76380;SDS011;65202;52.520;10.528;2023-06-01T12:50:06;8.93;;;4.43;;
76380;SDS011;65202;52.520;10.528;2023-06-01T12:52:36;9.27;;;4.15;;
76380;SDS011;65202;52.520;10.528;2023-06-01T12:55:05;11.88;;;4.57;;
76380;SDS011;65202;52.520;10.528;2023-06-01T12:57:35;10.27;;;4.32;;
76380;SDS011;65202;52.520;10.528;2023-06-01T13:00:06;13.32;;;4.80;;
76380;SDS011;65202;52.520;10.528;2023-06-01T13:02:34;13.10;;;4.25;;
76380;SDS011;65202;52.520;10.528;2023-06-01T13:05:02;9.50;;;4.65;;
76380;SDS011;65202;52.520;10.528;2023-06-01T13:07:32;12.07;;;4.40;;
76380;SDS011;65202;52.520;10.528;2023-06-01T13:10:00;12.23;;;4.00;;
76380;SDS011;65202;52.520;10.528;2023-06-01T13:12:27;15.05;;;4.60;;
76380;SDS011;65202;52.520;10.528;2023-06-01T13:14:55;14.88;;;4.30;;
76380;SDS011;65202;52.520;10.528;2023-06-01T13:17:24;11.27;;;4.32;;
76380;SDS011;65202;52.520;10.528;2023-06-01T13:19:52;8.98;;;4.22;;
76380;SDS011;65202;52.520;10.528;2023-06-01T13:22:22;9.63;;;4.28;;
76380;SDS011;65202;52.520;10.528;2023-06-01T13:24:49;10.73;;;4.05;;
76380;SDS011;65202;52.520;10.528;2023-06-01T13:27:32;11.73;;;4.32;;
76380;SDS011;65202;52.520;10.528;2023-06-01T13:30:01;16.10;;;4.40;;
76380;SDS011;65202;52.520;10.528;2023-06-01T13:32:31;10.77;;;3.95;;
76380;SDS011;65202;52.520;10.528;2023-06-01T13:34:58;15.80;;;5.22;;
76380;SDS011;65202;52.520;10.528;2023-06-01T13:37:26;9.77;;;3.95;;
76380;SDS011;65202;52.520;10.528;2023-06-01T13:39:53;10.55;;;4.00;;
76380;SDS011;65202;52.520;10.528;2023-06-01T13:42:20;11.05;;;3.95;;
76380;SDS011;65202;52.520;10.528;2023-06-01T13:44:47;9.98;;;3.88;;
76380;SDS011;65202;52.520;10.528;2023-06-01T13:47:15;9.07;;;3.58;;
76380;SDS011;65202;52.520;10.528;2023-06-01T13:49:43;10.50;;;3.63;;
76380;SDS011;65202;52.520;10.528;2023-06-01T13:52:11;8.63;;;3.88;;
76380;SDS011;65202;52.520;10.528;2023-06-01T13:54:39;7.88;;;3.20;;
76380;SDS011;65202;52.520;10.528;2023-06-01T13:57:06;8.48;;;3.38;;
76380;SDS011;65202;52.520;10.528;2023-06-01T13:59:35;7.63;;;3.30;;
76380;SDS011;65202;52.520;10.528;2023-06-01T14:02:03;8.77;;;3.33;;
76380;SDS011;65202;52.520;10.528;2023-06-01T14:04:31;12.00;;;5.53;;
76380;SDS011;65202;52.520;10.528;2023-06-01T14:06:59;14.90;;;4.30;;
76380;SDS011;65202;52.520;10.528;2023-06-01T14:09:26;10.57;;;4.45;;
76380;SDS011;65202;52.520;10.528;2023-06-01T14:11:53;7.90;;;3.90;;
76380;SDS011;65202;52.520;10.528;2023-06-01T14:14:21;12.48;;;3.97;;
76380;SDS011;65202;52.520;10.528;2023-06-01T14:16:48;8.93;;;3.88;;
76380;SDS011;65202;52.520;10.528;2023-06-01T14:19:15;11.20;;;4.22;;
76380;SDS011;65202;52.520;10.528;2023-06-01T14:21:42;17.55;;;4.25;;
76380;SDS011;65202;52.520;10.528;2023-06-01T14:24:10;13.30;;;4.07;;
76380;SDS011;65202;52.520;10.528;2023-06-01T14:26:37;11.18;;;4.25;;
76380;SDS011;65202;52.520;10.528;2023-06-01T14:29:04;12.25;;;4.30;;
76380;SDS011;65202;52.520;10.528;2023-06-01T14:31:31;16.42;;;4.55;;
76380;SDS011;65202;52.520;10.528;2023-06-01T14:33:59;14.85;;;4.13;;
76380;SDS011;65202;52.520;10.528;2023-06-01T14:36:26;11.88;;;4.22;;
76380;SDS011;65202;52.520;10.528;2023-06-01T14:39:13;11.93;;;4.20;;
76380;SDS011;65202;52.520;10.528;2023-06-01T14:41:41;13.65;;;3.97;;
76380;SDS011;65202;52.520;10.528;2023-06-01T14:44:10;9.98;;;3.50;;
76380;SDS011;65202;52.520;10.528;2023-06-01T14:46:38;12.63;;;3.97;;
76380;SDS011;65202;52.520;10.528;2023-06-01T14:49:05;13.05;;;4.53;;
76380;SDS011;65202;52.520;10.528;2023-06-01T14:51:32;17.95;;;4.00;;
76380;SDS011;65202;52.520;10.528;2023-06-01T14:54:00;12.48;;;4.00;;
76380;SDS011;65202;52.520;10.528;2023-06-01T14:56:27;13.13;;;3.80;;
76380;SDS011;65202;52.520;10.528;2023-06-01T14:58:54;10.32;;;3.10;;
76380;SDS011;65202;52.520;10.528;2023-06-01T15:01:22;9.90;;;3.70;;
76380;SDS011;65202;52.520;10.528;2023-06-01T15:03:52;14.63;;;3.88;;
76380;SDS011;65202;52.520;10.528;2023-06-01T15:06:19;10.23;;;3.65;;
76380;SDS011;65202;52.520;10.528;2023-06-01T15:08:47;10.93;;;4.10;;
76380;SDS011;65202;52.520;10.528;2023-06-01T15:11:14;11.70;;;4.05;;